Time;durP1;ratioP1;P1;durP2;ratioP2;P2;SDS_P1;SDS_P2;PMS_P1;PMS_P2;Temp;Humidity;BMP_temperature;BMP_pressure;BME280_temperature;BME280_humidity;BME280_pressure;Samples;Min_cycle;Max_cycle;Signal;HPM_P1;HPM_P2
2024/04/08 00:00:31;;;;;;;19.10;7.50;;;17.60;99.90;;;;;;5006010;28;20088;-54
2024/04/08 00:02:57;;;;;;;12.90;7.13;;;17.50;99.90;;;;;;5008283;28;20089;-49
2024/04/08 00:05:24;;;;;;;15.50;7.05;;;17.60;99.90;;;;;;5007938;28;20237;-45
2024/04/08 00:07:51;;;;;;;16.05;7.68;;;17.50;99.90;;;;;;5012539;28;20036;-49
2024/04/08 00:10:17;;;;;;;11.23;7.00;;;17.50;99.90;;;;;;4998587;28;20164;-46
2024/04/08 00:12:46;;;;;;;13.40;6.57;;;17.60;99.90;;;;;;5011776;28;20038;-49
2024/04/08 00:15:13;;;;;;;18.08;9.02;;;17.50;99.90;;;;;;4998116;28;20050;-48
2024/04/08 00:17:41;;;;;;;16.88;9.30;;;17.60;99.90;;;;;;5011635;28;20049;-50
2024/04/08 00:20:09;;;;;;;13.57;8.32;;;17.60;99.90;;;;;;5008333;28;20058;-47
2024/04/08 00:22:35;;;;;;;9.95;7.40;;;17.60;99.90;;;;;;5004208;28;20053;-47
2024/04/08 00:25:01;;;;;;;15.10;7.63;;;17.60;99.90;;;;;;5007145;28;20042;-46
2024/04/08 00:27:28;;;;;;;16.48;7.40;;;17.60;99.90;;;;;;5003438;28;20042;-49
2024/04/08 00:29:55;;;;;;;10.75;7.38;;;17.60;99.90;;;;;;5003556;28;20386;-46
2024/04/08 00:32:21;;;;;;;8.90;6.18;;;17.50;99.90;;;;;;5003372;28;20049;-49
2024/04/08 00:34:46;;;;;;;9.98;7.40;;;17.50;99.90;;;;;;5003460;28;20743;-51
2024/04/08 00:37:12;;;;;;;15.68;7.57;;;17.50;99.90;;;;;;5006523;28;20095;-50
2024/04/08 00:39:38;;;;;;;12.25;7.43;;;17.50;99.90;;;;;;5009743;28;20047;-53
2024/04/08 00:42:04;;;;;;;16.60;7.63;;;17.50;99.90;;;;;;5000069;28;20053;-49
2024/04/08 00:44:31;;;;;;;14.48;7.18;;;17.50;99.90;;;;;;5004623;28;20092;-45
2024/04/08 00:46:58;;;;;;;16.45;7.60;;;17.50;99.90;;;;;;5001171;28;20028;-47
2024/04/08 00:49:25;;;;;;;16.40;7.70;;;17.60;99.90;;;;;;4993743;28;20095;-48
2024/04/08 00:51:52;;;;;;;13.15;7.10;;;17.60;99.90;;;;;;5016278;28;20621;-45
2024/04/08 00:54:18;;;;;;;19.35;7.55;;;17.70;99.90;;;;;;5003086;28;20073;-51
2024/04/08 00:56:45;;;;;;;16.70;7.32;;;17.70;99.90;;;;;;5005703;28;20050;-51
2024/04/08 00:59:13;;;;;;;16.05;7.38;;;17.80;99.90;;;;;;5006784;28;20046;-50
2024/04/08 01:01:40;;;;;;;20.40;7.40;;;17.90;99.90;;;;;;5001044;28;20054;-50
2024/04/08 01:04:07;;;;;;;16.85;6.70;;;18.00;99.90;;;;;;5001372;28;20045;-48
2024/04/08 01:06:33;;;;;;;17.88;7.38;;;18.00;99.90;;;;;;5003657;28;20038;-45
2024/04/08 01:09:00;;;;;;;20.25;7.30;;;18.10;99.90;;;;;;4999990;28;20065;-49
2024/04/08 01:11:27;;;;;;;13.55;6.68;;;18.10;99.90;;;;;;5007528;28;20601;-46
2024/04/08 01:13:54;;;;;;;14.63;6.97;;;18.20;99.90;;;;;;5003520;28;20044;-44
2024/04/08 01:16:20;;;;;;;17.23;6.82;;;18.20;99.90;;;;;;5001469;28;20053;-48
2024/04/08 01:18:46;;;;;;;12.48;6.55;;;18.20;99.90;;;;;;5011351;28;20038;-50
2024/04/08 01:21:12;;;;;;;15.82;7.07;;;18.20;99.90;;;;;;4991869;28;20053;-49
2024/04/08 01:23:41;;;;;;;13.60;6.95;;;18.20;99.90;;;;;;5007686;28;20042;-50
2024/04/08 01:26:08;;;;;;;15.35;6.97;;;18.20;99.90;;;;;;5002863;28;20054;-43
2024/04/08 01:28:35;;;;;;;15.60;7.13;;;18.20;99.90;;;;;;5006467;28;20238;-44
2024/04/08 01:31:01;;;;;;;16.42;7.55;;;18.10;99.90;;;;;;5003874;28;20107;-47
2024/04/08 01:33:27;;;;;;;16.95;7.25;;;18.00;99.90;;;;;;4995744;28;20041;-54
2024/04/08 01:35:53;;;;;;;16.85;7.00;;;17.90;99.90;;;;;;5005223;28;20040;-47
2024/04/08 01:38:20;;;;;;;18.35;7.05;;;17.80;99.90;;;;;;5001677;28;20212;-50
2024/04/08 01:40:47;;;;;;;10.63;6.68;;;17.70;99.90;;;;;;5016210;28;20090;-51
2024/04/08 01:43:13;;;;;;;15.75;6.93;;;17.70;99.90;;;;;;4998435;28;20034;-52
2024/04/08 01:45:39;;;;;;;13.60;6.85;;;17.60;99.90;;;;;;5011040;28;20030;-53
2024/04/08 01:48:05;;;;;;;12.40;7.32;;;17.60;99.90;;;;;;4978847;28;20049;-49
2024/04/08 01:50:32;;;;;;;12.25;6.72;;;17.50;99.90;;;;;;5004462;28;20051;-48
2024/04/08 01:52:58;;;;;;;12.52;6.72;;;17.50;99.90;;;;;;5010886;28;20585;-48
2024/04/08 01:55:24;;;;;;;14.32;7.13;;;17.50;99.90;;;;;;5001878;28;20046;-47
2024/04/08 01:57:51;;;;;;;19.45;7.20;;;17.50;99.90;;;;;;4990289;28;20040;-47
2024/04/08 02:00:17;;;;;;;13.63;7.55;;;17.70;99.90;;;;;;5001627;28;20061;-51
2024/04/08 02:02:43;;;;;;;20.58;7.13;;;17.70;99.90;;;;;;5003823;28;20125;-48
2024/04/08 02:05:09;;;;;;;12.30;7.40;;;17.40;99.90;;;;;;5002475;28;20286;-49
2024/04/08 02:07:35;;;;;;;25.25;8.27;;;17.20;99.90;;;;;;5009144;28;20044;-50
2024/04/08 02:10:01;;;;;;;17.52;7.85;;;17.10;99.90;;;;;;5005906;28;20058;-50
2024/04/08 02:12:27;;;;;;;14.55;7.80;;;17.00;99.90;;;;;;5011283;28;20057;-45
2024/04/08 02:14:53;;;;;;;14.02;8.02;;;16.90;99.90;;;;;;4997499;28;20050;-47
2024/04/08 02:17:19;;;;;;;16.67;7.03;;;16.80;99.90;;;;;;5008364;28;20054;-49
2024/04/08 02:19:45;;;;;;;18.15;7.32;;;16.80;99.90;;;;;;4995150;28;20050;-52
2024/04/08 02:22:11;;;;;;;12.65;7.47;;;16.80;99.90;;;;;;5002522;28;20510;-45
2024/04/08 02:24:37;;;;;;;16.35;7.28;;;16.90;99.90;;;;;;5032219;28;20030;-49
2024/04/08 02:27:04;;;;;;;18.58;7.43;;;16.80;99.90;;;;;;5010744;28;20046;-47
2024/04/08 02:29:32;;;;;;;15.35;7.90;;;16.80;99.90;;;;;;5000717;28;20050;-48
2024/04/08 02:31:58;;;;;;;11.95;7.28;;;16.80;99.90;;;;;;5020632;28;20055;-49
2024/04/08 02:34:24;;;;;;;15.38;7.45;;;16.80;99.90;;;;;;5007861;28;20099;-48
2024/04/08 02:36:50;;;;;;;14.60;6.90;;;16.70;99.90;;;;;;5000622;28;20558;-46
2024/04/08 02:39:16;;;;;;;11.10;7.15;;;16.70;99.90;;;;;;5011943;28;20043;-51
2024/04/08 02:41:42;;;;;;;10.00;6.28;;;16.70;99.90;;;;;;5017027;28;20057;-43
2024/04/08 02:44:08;;;;;;;18.80;8.32;;;16.60;99.90;;;;;;5005105;28;20065;-53
2024/04/08 02:46:34;;;;;;;14.95;7.38;;;16.60;99.90;;;;;;5011045;28;20034;-48
2024/04/08 02:49:00;;;;;;;12.57;7.78;;;16.60;99.90;;;;;;5008546;28;20084;-45
2024/04/08 02:51:25;;;;;;;14.30;7.07;;;16.60;99.90;;;;;;5007565;28;20034;-47
2024/04/08 02:53:51;;;;;;;12.27;7.18;;;16.60;99.90;;;;;;5009958;28;20048;-47
2024/04/08 02:56:18;;;;;;;15.32;8.40;;;16.50;99.90;;;;;;4997674;28;20050;-49
2024/04/08 02:58:47;;;;;;;12.73;7.60;;;16.50;99.90;;;;;;5093134;28;20271;-48
2024/04/08 03:01:14;;;;;;;21.55;7.80;;;16.50;99.90;;;;;;5084513;28;20042;-50
2024/04/08 03:03:40;;;;;;;15.35;7.97;;;16.60;99.90;;;;;;5004651;28;20046;-51
2024/04/08 03:06:08;;;;;;;12.93;7.28;;;16.60;99.90;;;;;;5006260;28;20045;-45
2024/04/08 03:08:37;;;;;;;13.98;6.65;;;16.60;99.90;;;;;;5007548;28;20038;-48
2024/04/08 03:11:04;;;;;;;14.98;7.18;;;16.60;99.90;;;;;;4993331;28;20053;-49
2024/04/08 03:13:31;;;;;;;13.48;6.82;;;16.60;99.90;;;;;;4988568;28;20061;-47
2024/04/08 03:15:57;;;;;;;13.60;7.82;;;16.50;99.90;;;;;;5006670;28;20393;-49
2024/04/08 03:18:24;;;;;;;15.48;7.68;;;16.60;99.90;;;;;;5005406;28;20038;-45
2024/04/08 03:21:00;;;;;;;16.60;8.43;;;16.60;99.90;;;;;;5011182;28;20044;-46
2024/04/08 03:23:26;;;;;;;10.05;6.63;;;16.60;99.90;;;;;;4998900;28;20091;-47
2024/04/08 03:26:06;;;;;;;10.32;7.20;;;16.60;99.90;;;;;;5011093;28;20097;-46
2024/04/08 03:28:33;;;;;;;16.67;6.82;;;16.60;99.90;;;;;;5091685;27;20042;-48
2024/04/08 03:31:03;;;;;;;15.95;7.57;;;16.60;99.90;;;;;;5007757;28;20069;-46
2024/04/08 03:33:30;;;;;;;12.95;8.00;;;16.60;99.90;;;;;;5006287;28;20430;-49
2024/04/08 03:35:56;;;;;;;14.57;8.15;;;16.50;99.90;;;;;;5001808;28;20105;-48
2024/04/08 03:38:22;;;;;;;14.13;7.75;;;16.50;99.90;;;;;;5007933;28;20050;-52
2024/04/08 03:40:58;;;;;;;13.35;7.53;;;16.50;99.90;;;;;;5005418;28;20111;-48
2024/04/08 03:43:24;;;;;;;18.75;8.73;;;16.50;99.90;;;;;;4998691;28;20038;-45
2024/04/08 03:45:50;;;;;;;11.27;8.13;;;16.50;99.90;;;;;;5010731;28;20036;-47
2024/04/08 03:48:16;;;;;;;11.85;8.02;;;16.40;99.90;;;;;;5004479;28;20366;-47
2024/04/08 03:50:42;;;;;;;13.88;8.00;;;16.50;99.90;;;;;;5095231;27;20054;-51
2024/04/08 03:53:11;;;;;;;9.80;7.40;;;16.40;99.90;;;;;;5013978;28;20095;-45
2024/04/08 03:55:38;;;;;;;19.60;7.88;;;16.40;99.90;;;;;;5010449;28;20050;-50
2024/04/08 03:58:04;;;;;;;18.15;8.38;;;16.40;99.90;;;;;;5011461;28;20050;-47
2024/04/08 04:00:30;;;;;;;13.50;8.00;;;16.50;99.90;;;;;;5012855;28;20049;-47
2024/04/08 04:02:56;;;;;;;12.95;7.38;;;16.40;99.90;;;;;;5003163;28;20038;-49
2024/04/08 04:05:22;;;;;;;14.15;7.13;;;16.40;99.90;;;;;;5009350;28;20042;-49
2024/04/08 04:07:49;;;;;;;10.52;7.25;;;16.40;99.90;;;;;;5017811;28;20055;-49
2024/04/08 04:10:17;;;;;;;12.25;7.18;;;16.40;99.90;;;;;;5085314;28;20522;-49
2024/04/08 04:12:43;;;;;;;11.77;7.50;;;16.30;99.90;;;;;;5012613;28;20061;-47
2024/04/08 04:15:11;;;;;;;14.73;7.60;;;16.30;99.90;;;;;;5007884;28;20051;-47
2024/04/08 04:17:37;;;;;;;11.15;7.20;;;16.30;99.90;;;;;;5003769;28;20069;-47
2024/04/08 04:20:06;;;;;;;12.98;7.85;;;16.30;99.90;;;;;;5010558;28;20212;-49
2024/04/08 04:22:32;;;;;;;12.68;8.10;;;16.30;99.90;;;;;;5005873;28;20049;-47
2024/04/08 04:24:58;;;;;;;13.15;8.55;;;16.30;99.90;;;;;;4988126;28;20062;-47
2024/04/08 04:27:24;;;;;;;16.52;8.30;;;16.30;99.90;;;;;;5010562;28;20463;-48
2024/04/08 04:29:50;;;;;;;12.18;8.27;;;16.30;99.90;;;;;;5010184;28;20486;-46
2024/04/08 04:32:16;;;;;;;14.05;8.10;;;16.30;99.90;;;;;;5012000;28;20094;-51
2024/04/08 04:34:42;;;;;;;12.90;8.07;;;16.30;99.90;;;;;;5005274;28;20054;-48
2024/04/08 04:37:08;;;;;;;10.27;8.05;;;16.40;99.90;;;;;;5015050;28;20050;-47
2024/04/08 04:39:34;;;;;;;13.70;8.40;;;16.30;99.90;;;;;;5011778;28;20049;-49
2024/04/08 04:42:00;;;;;;;12.88;8.05;;;16.40;99.90;;;;;;5003193;28;20583;-50
2024/04/08 04:44:25;;;;;;;10.85;8.27;;;16.40;99.90;;;;;;5008078;28;20033;-45
2024/04/08 04:46:54;;;;;;;15.73;8.30;;;16.40;99.90;;;;;;5006653;28;20036;-48
2024/04/08 04:49:20;;;;;;;11.80;7.95;;;16.40;99.90;;;;;;5081733;27;20124;-46
2024/04/08 04:51:46;;;;;;;14.10;7.60;;;16.40;99.90;;;;;;5011456;28;20041;-49
2024/04/08 04:54:12;;;;;;;15.63;8.10;;;16.40;99.90;;;;;;5009006;28;20056;-49
2024/04/08 04:56:38;;;;;;;12.55;7.57;;;16.40;99.90;;;;;;5013811;28;20133;-46
2024/04/08 04:59:03;;;;;;;13.50;7.85;;;16.50;99.90;;;;;;5007176;28;20037;-47
2024/04/08 05:01:29;;;;;;;13.40;7.10;;;16.50;99.90;;;;;;5003128;28;20041;-48
2024/04/08 05:03:55;;;;;;;11.02;7.43;;;16.40;99.90;;;;;;5007223;28;20059;-50
2024/04/08 05:06:21;;;;;;;10.65;7.00;;;16.40;99.90;;;;;;5001375;28;20042;-49
2024/04/08 05:08:47;;;;;;;15.15;7.57;;;16.50;99.90;;;;;;5011739;28;20097;-49
2024/04/08 05:11:13;;;;;;;12.93;7.53;;;16.50;99.90;;;;;;5001896;28;20050;-48
2024/04/08 05:13:39;;;;;;;15.60;8.10;;;16.50;99.90;;;;;;5021633;28;20586;-44
2024/04/08 05:16:05;;;;;;;10.90;7.30;;;16.50;99.90;;;;;;4995425;28;20054;-44
2024/04/08 05:18:32;;;;;;;16.52;8.55;;;16.60;99.90;;;;;;5003892;28;20054;-46
2024/04/08 05:20:59;;;;;;;17.05;8.82;;;16.60;99.90;;;;;;5002095;28;20067;-46
2024/04/08 05:23:26;;;;;;;22.23;8.90;;;16.70;99.90;;;;;;4993368;28;20046;-46
2024/04/08 05:25:53;;;;;;;13.82;8.05;;;16.70;99.90;;;;;;5012215;28;20036;-51
2024/04/08 05:28:22;;;;;;;16.10;8.32;;;16.80;99.90;;;;;;4995056;28;20054;-46
2024/04/08 05:30:49;;;;;;;22.52;8.20;;;16.80;99.90;;;;;;5005830;28;20462;-50
2024/04/08 05:33:16;;;;;;;18.35;8.25;;;16.90;99.90;;;;;;5092976;28;20103;-48
2024/04/08 05:35:44;;;;;;;13.43;8.25;;;16.90;99.90;;;;;;5000160;28;20046;-51
2024/04/08 05:38:10;;;;;;;15.20;8.07;;;17.00;99.90;;;;;;4993087;28;20050;-47
2024/04/08 05:40:37;;;;;;;18.98;8.57;;;17.00;99.90;;;;;;5008570;28;20100;-50
2024/04/08 05:43:04;;;;;;;13.90;8.55;;;17.10;99.90;;;;;;4984945;28;20057;-51
2024/04/08 05:45:31;;;;;;;18.75;8.95;;;17.20;99.90;;;;;;5005252;28;20046;-46
2024/04/08 05:47:57;;;;;;;17.58;8.15;;;17.20;99.90;;;;;;5009041;28;20036;-48
2024/04/08 05:50:23;;;;;;;15.13;8.30;;;17.30;99.90;;;;;;5005143;28;20054;-47
2024/04/08 05:52:50;;;;;;;15.27;8.10;;;17.30;99.90;;;;;;5006211;28;20032;-47
2024/04/08 05:55:16;;;;;;;11.13;7.57;;;17.40;99.90;;;;;;5007668;28;20050;-45
2024/04/08 05:57:43;;;;;;;15.18;8.95;;;17.50;99.90;;;;;;4999818;28;20038;-47
2024/04/08 06:00:10;;;;;;;19.00;8.10;;;17.50;99.90;;;;;;5002836;28;20048;-49
2024/04/08 06:02:37;;;;;;;12.77;7.03;;;17.60;99.90;;;;;;5002955;28;20046;-49
2024/04/08 06:05:03;;;;;;;17.58;7.72;;;17.60;99.90;;;;;;5006414;28;20062;-48
2024/04/08 06:07:29;;;;;;;11.68;7.43;;;17.70;99.90;;;;;;4996963;28;20107;-48
2024/04/08 06:09:56;;;;;;;14.45;7.70;;;17.70;99.90;;;;;;5006117;28;20039;-47
2024/04/08 06:12:22;;;;;;;12.77;7.57;;;17.80;99.90;;;;;;5002139;28;20046;-47
2024/04/08 06:14:49;;;;;;;14.43;8.05;;;17.80;99.90;;;;;;5005593;28;20044;-49
2024/04/08 06:17:15;;;;;;;13.73;8.48;;;17.90;99.90;;;;;;4998869;28;20046;-49
2024/04/08 06:19:42;;;;;;;19.67;8.60;;;17.90;99.90;;;;;;5008398;28;20461;-44
2024/04/08 06:22:08;;;;;;;15.85;8.38;;;18.00;99.90;;;;;;5000898;28;20053;-49
2024/04/08 06:24:34;;;;;;;16.58;8.00;;;18.00;99.90;;;;;;5005845;28;20035;-49
2024/04/08 06:27:01;;;;;;;15.23;9.10;;;18.10;99.90;;;;;;4995348;28;20549;-50
2024/04/08 06:29:27;;;;;;;23.85;8.90;;;18.10;99.90;;;;;;5012018;28;20057;-52
2024/04/08 06:31:53;;;;;;;20.77;9.63;;;18.30;99.90;;;;;;5001079;28;20048;-48
2024/04/08 06:34:19;;;;;;;15.75;8.63;;;18.40;99.90;;;;;;5023495;28;20175;-48
2024/04/08 06:36:44;;;;;;;17.00;8.48;;;18.50;99.90;;;;;;4998630;28;20365;-48
2024/04/08 06:39:11;;;;;;;14.43;8.30;;;18.60;99.90;;;;;;4994546;28;20061;-52
2024/04/08 06:41:37;;;;;;;14.38;7.90;;;18.80;99.90;;;;;;5003300;28;20057;-50
2024/04/08 06:44:04;;;;;;;17.85;8.00;;;19.00;99.90;;;;;;4993589;28;20585;-53
2024/04/08 06:46:30;;;;;;;12.77;7.78;;;19.10;99.90;;;;;;4989116;28;20549;-47
2024/04/08 06:48:56;;;;;;;14.18;9.38;;;19.30;99.90;;;;;;4999264;28;20046;-47
2024/04/08 06:51:22;;;;;;;15.63;9.00;;;19.50;99.90;;;;;;5005990;28;20580;-47
2024/04/08 06:53:48;;;;;;;15.90;7.95;;;19.70;99.90;;;;;;5041686;28;20052;-52
2024/04/08 06:56:14;;;;;;;17.70;8.43;;;19.80;99.90;;;;;;5017510;28;20070;-47
2024/04/08 06:58:41;;;;;;;13.00;8.38;;;20.00;99.90;;;;;;5019288;28;20212;-52
2024/04/08 07:01:07;;;;;;;19.67;8.15;;;20.10;99.90;;;;;;5050147;28;20528;-48
2024/04/08 07:03:33;;;;;;;12.88;8.10;;;20.00;99.90;;;;;;5023763;28;20042;-48
2024/04/08 07:05:59;;;;;;;16.05;8.52;;;20.10;99.90;;;;;;5028547;28;20458;-46
2024/04/08 07:08:25;;;;;;;12.65;8.10;;;20.00;99.90;;;;;;5014377;28;20042;-48
2024/04/08 07:10:51;;;;;;;13.75;8.25;;;19.90;99.90;;;;;;5030433;28;20047;-47
2024/04/08 07:13:18;;;;;;;15.73;8.38;;;20.00;99.90;;;;;;5048259;28;20134;-46
2024/04/08 07:15:55;;;;;;;15.38;7.78;;;20.00;99.90;;;;;;5016343;28;20495;-50
2024/04/08 07:18:22;;;;;;;16.65;8.48;;;20.10;99.90;;;;;;5026121;28;20053;-45
2024/04/08 07:20:48;;;;;;;12.48;8.48;;;20.20;99.90;;;;;;5036536;28;20070;-50
2024/04/08 07:23:14;;;;;;;18.38;8.63;;;20.30;99.90;;;;;;4994279;28;20489;-48
2024/04/08 07:25:40;;;;;;;12.90;7.78;;;20.40;99.90;;;;;;5044328;28;20429;-49
2024/04/08 07:28:06;;;;;;;9.45;7.15;;;20.40;99.90;;;;;;5013202;28;20053;-47
2024/04/08 07:30:35;;;;;;;11.38;8.13;;;20.40;99.90;;;;;;5007700;28;20034;-44
2024/04/08 07:33:01;;;;;;;11.13;7.20;;;20.50;99.90;;;;;;5001360;28;20541;-48
2024/04/08 07:35:27;;;;;;;8.48;7.35;;;20.50;99.90;;;;;;5023275;28;20480;-46
2024/04/08 07:37:52;;;;;;;12.45;7.18;;;20.50;99.90;;;;;;5024977;28;20050;-47
2024/04/08 07:40:18;;;;;;;13.68;7.60;;;20.50;99.90;;;;;;5054095;28;20274;-49
2024/04/08 07:42:44;;;;;;;11.75;7.40;;;20.70;99.90;;;;;;5023752;28;20038;-49
2024/04/08 07:45:11;;;;;;;13.32;8.23;;;20.90;99.90;;;;;;5030605;28;20103;-50
2024/04/08 07:47:36;;;;;;;21.00;9.05;;;20.90;99.90;;;;;;5029012;28;20034;-50
2024/04/08 07:50:05;;;;;;;15.27;8.93;;;21.00;99.90;;;;;;5018660;28;20407;-50
2024/04/08 07:52:31;;;;;;;15.07;9.60;;;21.10;99.90;;;;;;5016169;28;20050;-45
2024/04/08 07:54:57;;;;;;;16.50;12.45;;;21.10;99.90;;;;;;5047826;28;20044;-48
2024/04/08 07:57:23;;;;;;;18.55;12.68;;;21.20;99.90;;;;;;5032973;28;20058;-47
2024/04/08 07:59:51;;;;;;;14.35;9.80;;;21.30;99.90;;;;;;5044398;28;20101;-48
2024/04/08 08:02:18;;;;;;;17.33;8.95;;;21.40;99.90;;;;;;5018757;28;20044;-49
2024/04/08 08:04:43;;;;;;;14.15;9.43;;;21.40;99.90;;;;;;5021484;28;20044;-50
2024/04/08 08:07:09;;;;;;;12.20;8.70;;;21.50;99.90;;;;;;5023222;28;20070;-52
2024/04/08 08:09:35;;;;;;;10.50;8.23;;;21.60;99.90;;;;;;5036425;28;20039;-51
2024/04/08 08:12:02;;;;;;;17.67;8.40;;;21.80;99.90;;;;;;5018355;28;20429;-50
2024/04/08 08:14:27;;;;;;;11.60;8.30;;;22.00;99.90;;;;;;5023013;28;20044;-50
2024/04/08 08:16:53;;;;;;;16.77;8.35;;;22.10;99.90;;;;;;5016004;28;20261;-49
2024/04/08 08:19:19;;;;;;;11.57;8.30;;;22.10;99.90;;;;;;5042158;28;20058;-51
2024/04/08 08:21:45;;;;;;;15.65;9.00;;;22.20;99.90;;;;;;5005783;28;20418;-45
2024/04/08 08:24:12;;;;;;;12.77;8.02;;;22.30;99.90;;;;;;4989552;28;20070;-52
2024/04/08 08:26:38;;;;;;;20.45;8.80;;;22.30;99.90;;;;;;5014042;28;20038;-47
2024/04/08 08:29:03;;;;;;;12.63;8.45;;;22.40;99.90;;;;;;5011844;28;20073;-45
2024/04/08 08:31:29;;;;;;;20.80;7.45;;;22.70;99.90;;;;;;5010005;28;20038;-52
2024/04/08 08:33:55;;;;;;;16.38;8.85;;;22.60;99.90;;;;;;4999193;28;20063;-50
2024/04/08 08:36:21;;;;;;;10.45;7.68;;;22.80;99.90;;;;;;4990230;28;20120;-51
2024/04/08 08:38:47;;;;;;;12.90;8.25;;;22.70;99.90;;;;;;5015265;28;20125;-46
2024/04/08 08:41:16;;;;;;;15.15;7.88;;;23.00;99.90;;;;;;5025062;28;20042;-52
2024/04/08 08:43:43;;;;;;;15.32;7.38;;;23.30;99.90;;;;;;4998740;28;21462;-48
2024/04/08 08:46:09;;;;;;;16.10;7.57;;;23.50;99.90;;;;;;5058469;28;20569;-48
2024/04/08 08:48:39;;;;;;;14.10;7.90;;;23.70;99.90;;;;;;4997822;28;20514;-53
2024/04/08 08:51:08;;;;;;;14.88;7.85;;;23.70;99.90;;;;;;5004627;28;20034;-52
2024/04/08 08:53:35;;;;;;;15.48;8.38;;;23.70;99.90;;;;;;5018668;28;20041;-47
2024/04/08 08:56:02;;;;;;;16.00;8.02;;;23.80;99.30;;;;;;4998702;28;20506;-50
2024/04/08 08:58:29;;;;;;;10.65;8.02;;;23.50;99.30;;;;;;5012513;28;20042;-48
2024/04/08 09:00:55;;;;;;;13.40;8.10;;;23.60;99.80;;;;;;5009587;28;20032;-49
2024/04/08 09:03:24;;;;;;;19.80;8.65;;;23.90;98.70;;;;;;4995532;28;20414;-51
2024/04/08 09:05:51;;;;;;;17.30;9.27;;;24.20;98.40;;;;;;5006125;28;20052;-46
2024/04/08 09:08:17;;;;;;;11.93;8.90;;;24.40;98.10;;;;;;4981655;28;20037;-50
2024/04/08 09:10:45;;;;;;;17.63;9.55;;;24.60;97.60;;;;;;5005613;28;20422;-44
2024/04/08 09:13:18;;;;;;;15.60;8.85;;;24.90;97.10;;;;;;5007522;28;20125;-45
2024/04/08 09:15:45;;;;;;;15.27;8.73;;;25.10;95.90;;;;;;4997242;28;20095;-50
2024/04/08 09:18:10;;;;;;;17.40;9.13;;;25.20;95.40;;;;;;5002427;28;20393;-49
2024/04/08 09:20:36;;;;;;;24.35;15.93;;;25.40;94.50;;;;;;5001530;28;20050;-49
2024/04/08 09:23:03;;;;;;;16.50;9.05;;;25.40;93.40;;;;;;4993283;28;20048;-49
2024/04/08 09:25:30;;;;;;;19.00;9.52;;;25.40;93.30;;;;;;4997893;28;20111;-47
2024/04/08 09:27:56;;;;;;;16.33;9.80;;;25.50;92.80;;;;;;4991707;28;20158;-50
2024/04/08 09:30:22;;;;;;;18.85;10.90;;;25.60;92.80;;;;;;4988384;28;20149;-51
2024/04/08 09:32:48;;;;;;;13.27;8.70;;;25.70;92.80;;;;;;5007710;28;20101;-50
2024/04/08 09:35:15;;;;;;;12.27;8.95;;;25.70;92.60;;;;;;5000045;28;20045;-48
2024/04/08 09:37:41;;;;;;;17.63;9.60;;;26.00;92.50;;;;;;4998391;28;20046;-48
2024/04/08 09:40:07;;;;;;;16.20;8.48;;;26.10;92.00;;;;;;5006678;28;20087;-49
2024/04/08 09:42:33;;;;;;;15.10;8.52;;;26.20;91.40;;;;;;4998383;28;20088;-51
2024/04/08 09:45:02;;;;;;;13.80;7.93;;;26.40;90.90;;;;;;4997841;28;20046;-49
2024/04/08 09:47:29;;;;;;;14.60;7.70;;;26.30;90.30;;;;;;5017424;28;20046;-49
2024/04/08 09:49:59;;;;;;;14.52;8.20;;;26.10;90.30;;;;;;5007385;28;20032;-49
2024/04/08 09:52:25;;;;;;;16.50;7.75;;;26.40;90.30;;;;;;5006641;28;20042;-48
2024/04/08 09:54:56;;;;;;;18.08;8.68;;;26.60;90.30;;;;;;5095497;27;20439;-47
2024/04/08 09:57:27;;;;;;;9.55;7.90;;;26.80;89.40;;;;;;5005188;28;20042;-48
2024/04/08 09:59:56;;;;;;;15.70;8.48;;;27.10;87.50;;;;;;5010847;28;20040;-47
2024/04/08 10:02:39;;;;;;;9.60;8.07;;;27.20;85.80;;;;;;5000781;28;20495;-46
2024/04/08 10:05:05;;;;;;;13.77;8.43;;;27.40;84.80;;;;;;5006714;28;20199;-49
2024/04/08 10:07:32;;;;;;;15.55;7.45;;;27.50;84.50;;;;;;5001780;28;20042;-51
2024/04/08 10:10:03;;;;;;;13.57;7.85;;;27.70;83.40;;;;;;5003092;28;20050;-46
2024/04/08 10:12:36;;;;;;;19.23;8.43;;;27.90;81.70;;;;;;5013424;28;20046;-50
2024/04/08 10:15:14;;;;;;;11.82;7.90;;;28.10;80.90;;;;;;5015657;28;20515;-50
2024/04/08 10:17:52;;;;;;;12.82;7.60;;;28.20;79.60;;;;;;5012681;28;20392;-47
2024/04/08 10:20:21;;;;;;;17.63;7.88;;;28.30;77.70;;;;;;5014292;28;20053;-46
2024/04/08 10:22:47;;;;;;;14.65;7.85;;;28.50;75.80;;;;;;5013632;28;20092;-48
2024/04/08 10:25:43;;;;;;;12.02;8.30;;;28.30;74.00;;;;;;5005926;28;20062;-45
2024/04/08 10:28:11;;;;;;;15.13;8.20;;;28.50;73.00;;;;;;5010121;28;20051;-44
2024/04/08 10:30:38;;;;;;;13.70;8.00;;;28.40;73.80;;;;;;5005476;28;20052;-47
2024/04/08 10:33:05;;;;;;;14.88;8.13;;;28.70;73.00;;;;;;5089243;27;20061;-50
2024/04/08 10:35:31;;;;;;;12.40;7.60;;;28.40;70.90;;;;;;5002590;28;20042;-48
2024/04/08 10:37:57;;;;;;;13.05;8.23;;;28.50;71.30;;;;;;5001002;28;20046;-46
2024/04/08 10:40:23;;;;;;;14.45;8.00;;;28.80;70.90;;;;;;5001042;28;20042;-49
2024/04/08 10:42:53;;;;;;;15.27;7.82;;;28.90;69.00;;;;;;5017757;28;20032;-45
2024/04/08 10:45:19;;;;;;;13.23;7.97;;;29.30;68.50;;;;;;5008086;28;20053;-43
2024/04/08 10:47:46;;;;;;;14.20;8.45;;;29.50;67.30;;;;;;5027735;28;20054;-49
2024/04/08 10:50:12;;;;;;;16.23;7.90;;;29.80;66.20;;;;;;4997611;28;20042;-45
2024/04/08 10:52:42;;;;;;;13.68;8.00;;;29.70;64.20;;;;;;5005953;28;20364;-51
2024/04/08 10:55:09;;;;;;;14.73;8.70;;;30.10;62.20;;;;;;5024256;28;20663;-50
2024/04/08 10:57:35;;;;;;;15.32;7.43;;;30.30;61.50;;;;;;5009664;28;20050;-48
2024/04/08 11:00:03;;;;;;;12.93;7.80;;;30.60;59.60;;;;;;5009856;28;20057;-47
2024/04/08 11:02:30;;;;;;;13.75;7.93;;;30.30;59.10;;;;;;5001676;28;20034;-46
2024/04/08 11:04:56;;;;;;;16.73;8.27;;;30.10;58.20;;;;;;5008525;28;20263;-47
2024/04/08 11:07:22;;;;;;;12.00;7.60;;;29.90;58.50;;;;;;5028048;28;20042;-48
2024/04/08 11:09:48;;;;;;;18.80;7.28;;;29.80;59.70;;;;;;5018932;28;20048;-49
2024/04/08 11:12:14;;;;;;;13.35;7.72;;;30.10;59.40;;;;;;5012784;28;20518;-52
2024/04/08 11:14:42;;;;;;;10.77;7.63;;;30.00;58.20;;;;;;5012146;28;20053;-47
2024/04/08 11:17:14;;;;;;;24.58;8.57;;;30.30;58.50;;;;;;5015383;28;20049;-49
2024/04/08 11:19:43;;;;;;;13.68;7.43;;;30.40;58.00;;;;;;5029509;28;20056;-47
2024/04/08 11:22:10;;;;;;;11.15;7.43;;;30.80;56.70;;;;;;5005425;28;20054;-54
2024/04/08 11:24:42;;;;;;;15.13;8.68;;;30.60;56.70;;;;;;5009580;28;20034;-45
2024/04/08 11:27:09;;;;;;;14.27;7.28;;;31.20;56.50;;;;;;5007856;28;20042;-46
2024/04/08 11:29:35;;;;;;;12.88;7.22;;;31.80;55.50;;;;;;5012379;28;20148;-47
2024/04/08 11:32:01;;;;;;;14.20;7.70;;;32.10;55.30;;;;;;5016477;28;20046;-45
2024/04/08 11:34:27;;;;;;;13.60;7.47;;;32.10;54.30;;;;;;5002508;28;20311;-49
2024/04/08 11:36:54;;;;;;;14.63;8.00;;;32.10;53.00;;;;;;5000334;28;20117;-48
2024/04/08 11:39:20;;;;;;;18.08;8.38;;;32.10;52.60;;;;;;4998058;28;20128;-50
2024/04/08 11:41:46;;;;;;;14.57;7.53;;;32.50;50.20;;;;;;5001174;28;20062;-50
2024/04/08 11:44:11;;;;;;;17.00;8.68;;;32.70;49.50;;;;;;4996742;28;20046;-51
2024/04/08 11:46:37;;;;;;;13.52;8.25;;;32.80;49.30;;;;;;5004091;28;20049;-51
2024/04/08 11:49:04;;;;;;;13.05;8.07;;;33.20;48.40;;;;;;5006541;28;20150;-50
2024/04/08 11:51:30;;;;;;;14.77;8.20;;;33.70;48.70;;;;;;5006690;28;20422;-47
2024/04/08 11:53:56;;;;;;;15.55;7.60;;;33.90;49.10;;;;;;5016608;28;20489;-54
2024/04/08 11:56:22;;;;;;;16.40;8.30;;;34.00;49.20;;;;;;5008345;28;20050;-46
2024/04/08 11:58:50;;;;;;;16.10;8.13;;;34.60;48.90;;;;;;5029609;28;20056;-47
2024/04/08 12:01:16;;;;;;;11.90;7.50;;;34.90;48.40;;;;;;5088745;27;20311;-47
2024/04/08 12:03:42;;;;;;;20.13;7.80;;;35.20;48.10;;;;;;5011588;28;20042;-49
2024/04/08 12:06:10;;;;;;;12.57;7.70;;;35.30;48.20;;;;;;5011433;28;20589;-46
2024/04/08 12:08:36;;;;;;;15.70;7.85;;;35.70;48.00;;;;;;5013487;28;20038;-49
2024/04/08 12:11:03;;;;;;;15.85;8.52;;;36.30;47.00;;;;;;5087457;27;20383;-46
2024/04/08 12:13:29;;;;;;;20.02;8.07;;;36.20;45.90;;;;;;5011939;28;20533;-52
2024/04/08 12:15:55;;;;;;;11.73;7.75;;;35.80;45.10;;;;;;5005180;28;20130;-49
2024/04/08 12:18:21;;;;;;;14.70;8.05;;;35.80;45.20;;;;;;5006923;28;20515;-51
2024/04/08 12:20:47;;;;;;;10.98;8.43;;;35.60;44.40;;;;;;5017647;28;20050;-51
2024/04/08 12:23:13;;;;;;;17.52;9.02;;;36.10;44.50;;;;;;5003569;28;20049;-47
2024/04/08 12:25:39;;;;;;;16.15;8.18;;;35.80;43.50;;;;;;5016029;28;20077;-55
2024/04/08 12:28:08;;;;;;;16.00;8.25;;;36.10;43.20;;;;;;5005316;28;20120;-50
2024/04/08 12:30:35;;;;;;;17.23;8.77;;;35.80;43.60;;;;;;5011524;28;20064;-51
2024/04/08 12:33:01;;;;;;;11.95;8.75;;;35.10;43.80;;;;;;5011183;28;20459;-49
2024/04/08 12:35:28;;;;;;;16.08;7.82;;;35.30;43.90;;;;;;5023613;28;20064;-52